Time;durP1;ratioP1;P1;durP2;ratioP2;P2;SDS_P1;SDS_P2;PMS_P1;PMS_P2;Temp;Humidity;BMP_temperature;BMP_pressure;BME280_temperature;BME280_humidity;BME280_pressure;Samples;Min_cycle;Max_cycle;Signal;HPM_P1;HPM_P2
2021/10/21 00:00:26;;;;;;;23.42;11.60;;;;;;;11.58;61.62;99898.95;1668663;85;21108;-72
2021/10/21 00:02:53;;;;;;;21.75;12.63;;;;;;;11.53;60.76;99901.80;1664297;86;21056;-73
2021/10/21 00:05:20;;;;;;;28.15;12.60;;;;;;;11.50;60.55;99896.67;1608791;88;21256;-74
2021/10/21 00:07:47;;;;;;;27.17;14.25;;;;;;;11.50;60.92;99892.72;1608825;89;21636;-74
2021/10/21 00:10:13;;;;;;;25.77;13.98;;;;;;;11.47;60.74;99890.66;1664262;86;21108;-73
2021/10/21 00:12:40;;;;;;;25.70;14.13;;;;;;;11.44;61.01;99886.38;1663750;86;21623;-72
2021/10/21 00:15:08;;;;;;;27.52;13.22;;;;;;;11.40;61.24;99887.44;1609159;89;21115;-73
2021/10/21 00:17:36;;;;;;;24.52;13.90;;;;;;;11.35;61.21;99889.42;1608761;89;21134;-72
2021/10/21 00:20:09;;;;;;;25.12;14.43;;;;;;;11.33;61.27;99883.36;1609221;89;21111;-72
2021/10/21 00:22:37;;;;;;;31.05;13.90;;;;;;;11.30;61.87;99883.51;1664531;86;21080;-71
2021/10/21 00:25:06;;;;;;;22.62;11.63;;;;;;;11.23;62.01;99871.53;1664341;86;21080;-72
2021/10/21 00:27:33;;;;;;;21.50;12.45;;;;;;;11.18;62.59;99874.80;1608904;88;21064;-72
2021/10/21 00:30:01;;;;;;;25.43;13.98;;;;;;;11.12;63.26;99874.62;1609197;89;21922;-74
2021/10/21 00:32:28;;;;;;;29.07;16.23;;;;;;;11.06;63.93;99872.23;1608856;89;21097;-72
2021/10/21 00:34:56;;;;;;;37.83;17.20;;;;;;;11.02;63.99;99874.16;1664464;86;21060;-72
2021/10/21 00:37:22;;;;;;;34.80;17.37;;;;;;;11.00;65.42;99866.78;1664168;86;21038;-71
2021/10/21 00:39:48;;;;;;;35.90;18.02;;;;;;;10.98;64.98;99865.14;1609157;89;21123;-72
2021/10/21 00:42:15;;;;;;;39.88;18.37;;;;;;;10.93;65.56;99856.11;1609356;89;21494;-74
2021/10/21 00:44:42;;;;;;;31.10;17.50;;;;;;;10.91;64.77;99856.17;1664144;86;21048;-75
2021/10/21 00:47:09;;;;;;;33.60;17.65;;;;;;;10.87;64.92;99851.95;1664310;86;21216;-75
2021/10/21 00:49:36;;;;;;;33.83;17.57;;;;;;;10.85;65.09;99848.52;1609155;88;21123;-75
2021/10/21 00:52:04;;;;;;;29.48;15.03;;;;;;;10.83;64.80;99838.97;1609156;89;21090;-75
2021/10/21 00:54:30;;;;;;;25.48;14.40;;;;;;;10.80;64.76;99833.84;1664573;86;21108;-75
2021/10/21 00:56:57;;;;;;;28.20;14.23;;;;;;;10.79;65.26;99829.48;1664594;86;21554;-75
2021/10/21 00:59:23;;;;;;;26.52;13.75;;;;;;;10.73;64.57;99816.59;1609259;88;21163;-75
2021/10/21 01:01:50;;;;;;;25.52;13.22;;;;;;;10.75;64.56;99817.39;1615875;88;21095;-75
2021/10/21 01:04:16;;;;;;;29.25;13.50;;;;;;;10.74;64.43;99816.51;1615929;88;21086;-74
2021/10/21 01:06:44;;;;;;;27.25;14.33;;;;;;;10.76;64.39;99809.87;1615990;88;21158;-73
2021/10/21 01:09:12;;;;;;;28.47;13.62;;;;;;;10.78;64.44;99812.83;1617366;88;21568;-75
2021/10/21 01:11:41;;;;;;;29.65;14.65;;;;;;;10.80;64.66;99810.14;1616013;87;21138;-73
2021/10/21 01:14:09;;;;;;;25.92;14.38;;;;;;;10.81;64.63;99811.84;1616001;88;21588;-75
2021/10/21 01:16:40;;;;;;;27.52;13.10;;;;;;;10.81;65.68;99810.52;1674501;85;21570;-76
2021/10/21 01:19:19;;;;;;;27.98;15.03;;;;;;;10.83;65.29;99807.36;1674555;85;21142;-72
2021/10/21 01:21:49;;;;;;;;;;;;;;;10.84;64.94;99798.55;1618598;88;21724;-74
2021/10/21 01:24:17;;;;;;;33.88;13.68;;;;;;;10.86;66.17;99791.44;1616022;88;20207;-72
2021/10/21 01:26:47;;;;;;;27.85;14.58;;;;;;;10.87;64.97;99787.87;1615254;88;21047;-74
2021/10/21 01:29:18;;;;;;;27.37;15.85;;;;;;;10.89;64.73;99796.56;1616162;88;21095;-73
2021/10/21 01:31:46;;;;;;;26.17;14.53;;;;;;;10.91;64.28;99797.36;1616018;88;21242;-73
2021/10/21 01:34:13;;;;;;;24.98;14.38;;;;;;;10.93;64.26;99796.84;1674255;85;21044;-73
2021/10/21 01:36:41;;;;;;;25.10;14.47;;;;;;;10.96;64.33;99788.78;1674063;85;21075;-73
2021/10/21 01:39:10;;;;;;;27.52;14.45;;;;;;;10.97;64.03;99793.59;1615937;88;22131;-73
2021/10/21 01:41:37;;;;;;;27.15;15.28;;;;;;;10.98;64.02;99787.41;1615849;88;21645;-73
2021/10/21 01:44:04;;;;;;;25.60;14.23;;;;;;;10.99;63.94;99784.69;1615778;88;22362;-72
2021/10/21 01:46:31;;;;;;;34.25;16.02;;;;;;;10.99;64.13;99785.16;1615805;88;21598;-74
2021/10/21 01:48:58;;;;;;;27.45;14.98;;;;;;;11.00;64.28;99790.38;1616181;88;21174;-74
2021/10/21 01:51:24;;;;;;;34.23;15.65;;;;;;;11.00;64.65;99778.52;1616023;88;21102;-72
2021/10/21 01:53:50;;;;;;;28.17;14.28;;;;;;;11.00;64.83;99767.13;1616004;88;21086;-75
2021/10/21 01:56:20;;;;;;;21.87;13.22;;;;;;;10.98;65.08;99766.34;1611835;88;21838;-75
2021/10/21 01:58:46;;;;;;;29.48;13.48;;;;;;;10.97;65.41;99761.97;1590494;90;21173;-74
2021/10/21 02:01:13;;;;;;;26.02;13.83;;;;;;;10.95;65.46;99759.42;1650128;86;21092;-74
2021/10/21 02:03:40;;;;;;;27.20;13.13;;;;;;;10.94;64.98;99766.91;1640824;86;21869;-74
2021/10/21 02:06:06;;;;;;;26.62;13.62;;;;;;;10.90;65.68;99762.70;1677175;85;21128;-73
2021/10/21 02:08:33;;;;;;;20.50;12.93;;;;;;;10.89;66.85;99759.69;1679733;85;21248;-73
2021/10/21 02:10:59;;;;;;;22.52;12.60;;;;;;;10.84;65.28;99759.04;1679749;84;21109;-74
2021/10/21 02:13:26;;;;;;;24.82;15.20;;;;;;;10.79;65.56;99766.27;1667994;84;21438;-73
2021/10/21 02:15:53;;;;;;;26.17;14.85;;;;;;;10.74;65.38;99765.14;1652177;86;21567;-72
2021/10/21 02:18:21;;;;;;;28.15;14.50;;;;;;;10.68;65.57;99766.75;1652142;86;21125;-74
2021/10/21 02:20:48;;;;;;;32.35;16.42;;;;;;;10.63;65.72;99768.27;1652147;86;21204;-74
2021/10/21 02:23:14;;;;;;;31.27;16.52;;;;;;;10.60;65.96;99766.21;1652124;86;22172;-74
2021/10/21 02:25:42;;;;;;;36.08;17.25;;;;;;;10.55;66.00;99761.14;1652183;86;21074;-75
2021/10/21 02:28:09;;;;;;;36.35;19.67;;;;;;;10.51;66.07;99762.19;1652745;86;21053;-74
2021/10/21 02:30:35;;;;;;;41.77;19.90;;;;;;;10.47;66.41;99756.69;1652616;86;21521;-74
2021/10/21 02:33:02;;;;;;;49.08;20.88;;;;;;;10.43;66.53;99756.41;1651913;86;21143;-74
2021/10/21 02:35:29;;;;;;;45.85;21.68;;;;;;;10.38;66.83;99754.44;1652499;86;21583;-73
2021/10/21 02:37:55;;;;;;;45.38;21.60;;;;;;;10.35;67.14;99750.59;1652297;86;21077;-74
2021/10/21 02:40:22;;;;;;;43.02;23.47;;;;;;;10.31;67.36;99749.89;1652203;86;21049;-76
2021/10/21 02:42:48;;;;;;;41.18;22.60;;;;;;;10.25;67.74;99743.05;1652323;86;21140;-73
2021/10/21 02:45:14;;;;;;;37.53;20.77;;;;;;;10.20;68.31;99745.03;1652349;86;21990;-74
2021/10/21 02:47:41;;;;;;;35.83;21.25;;;;;;;10.16;69.00;99738.17;1652428;86;21547;-74
2021/10/21 02:50:08;;;;;;;37.60;20.60;;;;;;;10.13;69.30;99738.31;1652288;86;21148;-73
2021/10/21 02:52:35;;;;;;;35.03;19.42;;;;;;;10.10;69.56;99735.82;1652016;86;21094;-73
2021/10/21 02:55:02;;;;;;;32.08;16.52;;;;;;;10.02;70.45;99726.91;1652352;86;21058;-74
2021/10/21 02:57:29;;;;;;;35.35;16.67;;;;;;;9.97;69.86;99731.97;1652239;86;21113;-72
2021/10/21 02:59:56;;;;;;;30.85;16.23;;;;;;;9.95;69.59;99729.86;1624356;88;21094;-73
2021/10/21 03:02:22;;;;;;;34.50;17.15;;;;;;;9.92;70.00;99726.05;1651946;86;22274;-73
2021/10/21 03:04:48;;;;;;;43.17;19.82;;;;;;;9.85;69.91;99728.92;1633877;86;21570;-71
2021/10/21 03:07:15;;;;;;;36.40;19.42;;;;;;;9.81;70.16;99723.38;1679768;85;21034;-72
2021/10/21 03:09:42;;;;;;;36.68;19.12;;;;;;;9.79;70.30;99713.38;1650753;86;21170;-73
2021/10/21 03:12:08;;;;;;;36.80;16.48;;;;;;;9.75;70.48;99719.67;1679653;84;21572;-75
2021/10/21 03:14:35;;;;;;;36.70;19.65;;;;;;;9.70;70.84;99721.64;1651059;85;21027;-73
2021/10/21 03:17:01;;;;;;;32.98;17.10;;;;;;;9.67;71.00;99723.08;1679764;85;21102;-73
2021/10/21 03:19:28;;;;;;;32.42;17.30;;;;;;;9.63;71.28;99722.80;1650672;86;21071;-73
2021/10/21 03:21:54;;;;;;;31.82;19.00;;;;;;;9.59;71.51;99719.45;1679756;85;21120;-73
2021/10/21 03:24:21;;;;;;;32.80;18.87;;;;;;;9.58;71.71;99720.82;1653831;86;21610;-76
2021/10/21 03:26:47;;;;;;;35.43;19.15;;;;;;;9.54;72.10;99723.16;1654308;86;21160;-78
2021/10/21 03:29:14;;;;;;;36.25;20.08;;;;;;;9.49;72.26;99721.18;1653988;86;21082;-80
2021/10/21 03:31:40;;;;;;;35.05;19.42;;;;;;;9.47;72.72;99713.81;1653647;86;21103;-77
2021/10/21 03:34:07;;;;;;;34.48;19.77;;;;;;;9.42;72.93;99713.52;1653964;86;21486;-77
2021/10/21 03:36:33;;;;;;;34.63;17.17;;;;;;;9.40;73.17;99711.41;1653787;86;21044;-76
2021/10/21 03:39:01;;;;;;;35.00;18.30;;;;;;;9.36;73.86;99708.53;1653977;86;21095;-76
2021/10/21 03:41:30;;;;;;;32.28;17.92;;;;;;;9.34;74.00;99705.09;1654222;86;21637;-76
2021/10/21 03:43:57;;;;;;;31.35;17.77;;;;;;;9.29;74.37;99704.39;1657051;86;21028;-75
2021/10/21 03:46:23;;;;;;;33.38;17.07;;;;;;;9.28;74.96;99701.38;1657211;86;21120;-76
2021/10/21 03:48:49;;;;;;;32.78;17.00;;;;;;;9.24;75.28;99695.38;1657053;86;21078;-77
2021/10/21 03:51:16;;;;;;;30.00;17.45;;;;;;;9.19;74.86;99690.77;1656755;86;21035;-76
2021/10/21 03:53:42;;;;;;;31.95;17.73;;;;;;;9.18;74.87;99690.84;1654609;86;21118;-75
2021/10/21 03:56:09;;;;;;;39.38;19.40;;;;;;;9.15;75.28;99696.19;1653900;86;21114;-73
2021/10/21 03:58:37;;;;;;;30.75;19.00;;;;;;;9.11;74.96;99681.45;1654224;86;21056;-73
2021/10/21 04:01:04;;;;;;;40.40;20.20;;;;;;;9.09;75.18;99687.22;1654945;86;21140;-73
2021/10/21 04:03:30;;;;;;;37.83;18.77;;;;;;;9.05;75.21;99681.70;1658447;86;21110;-74
2021/10/21 04:05:57;;;;;;;36.28;19.92;;;;;;;9.04;75.32;99682.14;1635918;86;21111;-73
2021/10/21 04:08:23;;;;;;;39.23;20.48;;;;;;;9.01;75.50;99678.33;1661595;86;20994;-76
2021/10/21 04:10:50;;;;;;;37.03;20.00;;;;;;;9.00;75.74;99677.94;1661549;86;22100;-75
2021/10/21 04:15:09;;;;;;;43.40;21.45;;;;;;;9.00;76.15;99660.41;1796266;79;28611;-74
2021/10/21 04:17:35;;;;;;;40.67;20.62;;;;;;;8.93;76.22;99661.56;1753772;81;21069;-75
2021/10/21 04:20:04;;;;;;;38.45;20.52;;;;;;;8.88;76.38;99655.63;1746183;81;21141;-74
2021/10/21 04:22:30;;;;;;;36.48;20.43;;;;;;;8.88;76.63;99659.57;1730285;82;21045;-75
2021/10/21 04:24:59;;;;;;;37.80;21.70;;;;;;;8.88;76.72;99658.26;1719375;82;21013;-73
2021/10/21 04:27:26;;;;;;;45.08;22.37;;;;;;;8.85;76.88;99654.41;1728541;82;21100;-76
2021/10/21 04:29:52;;;;;;;39.75;20.97;;;;;;;8.83;77.02;99648.36;1718169;83;21627;-74
2021/10/21 04:32:19;;;;;;;34.80;18.90;;;;;;;8.84;77.19;99646.61;1717328;83;21133;-74
2021/10/21 04:34:45;;;;;;;34.50;19.00;;;;;;;8.83;77.60;99648.36;1717895;83;21025;-75
2021/10/21 04:37:12;;;;;;;34.33;20.00;;;;;;;8.82;77.80;99651.91;1718868;83;22271;-77
2021/10/21 04:39:38;;;;;;;38.28;21.23;;;;;;;8.81;77.72;99644.92;1719357;83;21069;-78
2021/10/21 04:42:06;;;;;;;36.03;20.12;;;;;;;8.78;77.70;99646.37;1717340;83;21132;-75
2021/10/21 04:44:33;;;;;;;42.27;21.52;;;;;;;8.78;78.13;99647.68;1717052;83;22412;-74
2021/10/21 04:46:59;;;;;;;38.25;22.30;;;;;;;8.81;77.89;99643.62;1721309;82;21101;-72
2021/10/21 04:49:26;;;;;;;32.65;18.60;;;;;;;8.80;78.42;99641.45;1667367;85;21766;-75
2021/10/21 04:51:52;;;;;;;38.08;19.05;;;;;;;8.80;78.44;99641.92;1676375;84;21064;-73
2021/10/21 04:54:19;;;;;;;37.90;19.20;;;;;;;8.81;78.41;99647.12;1696554;84;21081;-75
2021/10/21 04:56:45;;;;;;;44.73;21.12;;;;;;;8.85;78.03;99653.09;1681852;84;21830;-74
2021/10/21 04:59:12;;;;;;;37.03;19.82;;;;;;;8.88;77.73;99656.94;1697969;84;21093;-75
2021/10/21 05:01:39;;;;;;;44.95;22.95;;;;;;;8.90;78.28;99656.40;1690031;84;21046;-74
2021/10/21 05:04:06;;;;;;;43.48;21.90;;;;;;;8.92;77.77;99661.14;1697635;84;21077;-73
2021/10/21 05:06:32;;;;;;;38.98;20.62;;;;;;;8.94;77.30;99663.25;1689329;84;21136;-72
2021/10/21 05:08:58;;;;;;;37.58;22.65;;;;;;;8.99;77.03;99663.93;1704144;83;21508;-74
2021/10/21 05:11:24;;;;;;;42.08;22.87;;;;;;;9.01;76.87;99662.11;1694310;84;21144;-75
2021/10/21 05:13:51;;;;;;;42.10;23.02;;;;;;;9.06;77.00;99666.34;1668961;84;21190;-72
2021/10/21 05:16:18;;;;;;;39.03;22.35;;;;;;;9.08;77.00;99672.39;1676073;85;21138;-73
2021/10/21 05:18:46;;;;;;;35.83;21.33;;;;;;;9.12;77.04;99677.93;1714544;82;21133;-72
2021/10/21 05:21:13;;;;;;;37.75;21.00;;;;;;;9.14;76.51;99669.53;1723746;82;21134;-72
2021/10/21 05:23:40;;;;;;;36.98;19.67;;;;;;;9.21;76.74;99672.32;1720502;82;21588;-74
2021/10/21 05:26:07;;;;;;;36.90;20.57;;;;;;;9.26;76.65;99669.05;1705890;82;21073;-73
2021/10/21 05:28:33;;;;;;;35.73;19.90;;;;;;;9.30;76.39;99669.80;1700383;82;21028;-73
2021/10/21 05:31:00;;;;;;;32.28;19.80;;;;;;;9.33;75.69;99675.78;1719035;82;21136;-72
2021/10/21 05:33:26;;;;;;;32.17;19.42;;;;;;;9.41;75.89;99665.83;1727578;82;21533;-74
2021/10/21 05:35:53;;;;;;;35.60;19.40;;;;;;;9.49;74.88;99670.77;1702403;82;21049;-73
2021/10/21 05:38:19;;;;;;;35.28;20.05;;;;;;;9.65;74.12;99663.98;1720530;82;22225;-74
2021/10/21 05:40:45;;;;;;;35.17;20.75;;;;;;;9.82;73.20;99661.11;1718337;82;21062;-73
2021/10/21 05:43:12;;;;;;;35.43;20.77;;;;;;;10.03;72.55;99664.19;1716543;82;21093;-73
2021/10/21 05:45:39;;;;;;;38.02;22.87;;;;;;;10.35;71.56;99667.69;1716226;82;21958;-74
2021/10/21 05:48:06;;;;;;;46.08;21.37;;;;;;;10.68;70.64;99655.67;1708525;82;21054;-73
2021/10/21 05:50:32;;;;;;;36.88;21.35;;;;;;;11.10;68.62;99655.94;1725371;82;21077;-73
2021/10/21 05:52:59;;;;;;;33.80;20.35;;;;;;;11.49;67.26;99654.97;1731820;82;21117;-74
2021/10/21 05:55:26;;;;;;;31.93;18.62;;;;;;;11.88;65.31;99655.30;1733193;82;21038;-72
2021/10/21 05:57:54;;;;;;;38.17;17.70;;;;;;;12.26;63.74;99648.55;1715362;82;21177;-75
2021/10/21 06:00:21;;;;;;;33.08;20.85;;;;;;;12.64;61.96;99651.44;1725244;82;21078;-74
2021/10/21 06:02:47;;;;;;;29.98;18.82;;;;;;;13.04;60.31;99652.77;1713467;82;21140;-73
2021/10/21 06:05:14;;;;;;;35.78;21.27;;;;;;;13.13;58.98;99648.77;1711021;82;21011;-73
2021/10/21 06:07:40;;;;;;;32.53;20.08;;;;;;;13.10;59.16;99652.91;1708119;82;21148;-73
2021/10/21 06:10:09;;;;;;;33.38;20.95;;;;;;;13.15;59.07;99663.61;1717530;82;21150;-72
2021/10/21 06:12:37;;;;;;;39.10;21.20;;;;;;;13.19;58.79;99667.80;1703822;82;21086;-74
2021/10/21 06:15:04;;;;;;;31.57;19.98;;;;;;;13.48;59.05;99668.45;1730031;81;21149;-74
2021/10/21 06:17:33;;;;;;;29.37;18.57;;;;;;;13.69;57.61;99662.41;1721113;82;21189;-74
2021/10/21 06:19:59;;;;;;;23.83;16.52;;;;;;;13.80;58.18;99657.36;1719530;82;21101;-75
2021/10/21 06:22:26;;;;;;;28.87;16.62;;;;;;;13.94;57.69;99662.73;1723051;82;21337;-74
2021/10/21 06:24:54;;;;;;;26.15;17.20;;;;;;;14.00;55.34;99659.70;1724622;82;21048;-73
2021/10/21 06:27:20;;;;;;;26.73;16.32;;;;;;;13.99;55.81;99661.13;1721253;82;21062;-73
2021/10/21 06:29:47;;;;;;;29.37;17.15;;;;;;;14.08;56.30;99651.77;1720706;82;21790;-75
2021/10/21 06:32:13;;;;;;;23.27;15.05;;;;;;;14.19;55.07;99653.31;1708875;82;21482;-73
2021/10/21 06:34:40;;;;;;;26.93;15.65;;;;;;;14.43;53.87;99649.20;1722361;82;21958;-73
2021/10/21 06:37:08;;;;;;;27.15;14.55;;;;;;;14.67;53.15;99645.55;1684085;82;21027;-73
2021/10/21 06:39:34;;;;;;;29.30;15.88;;;;;;;14.76;52.33;99648.11;1708155;82;21633;-73
2021/10/21 06:42:01;;;;;;;25.10;15.55;;;;;;;14.88;52.17;99639.41;1725533;82;21074;-73
2021/10/21 06:44:28;;;;;;;22.93;14.38;;;;;;;15.07;51.33;99631.14;1728209;82;21049;-74
2021/10/21 06:46:55;;;;;;;25.62;14.50;;;;;;;15.27;50.58;99639.12;1716854;82;21101;-75
2021/10/21 06:49:21;;;;;;;23.52;15.38;;;;;;;15.60;49.89;99641.89;1715396;82;21633;-75
2021/10/21 06:51:49;;;;;;;21.95;14.30;;;;;;;15.99;48.77;99638.91;1712538;82;21042;-75
2021/10/21 06:54:16;;;;;;;17.10;12.33;;;;;;;16.41;47.87;99640.07;1704172;84;21058;-75
2021/10/21 06:56:45;;;;;;;21.70;12.70;;;;;;;16.73;46.65;99631.17;1707483;82;21058;-76
2021/10/21 06:59:11;;;;;;;21.30;14.05;;;;;;;16.77;45.96;99632.64;1717662;82;21121;-77
2021/10/21 07:01:40;;;;;;;29.00;12.93;;;;;;;16.56;46.35;99619.05;1719320;82;21560;-74
2021/10/21 07:04:06;;;;;;;17.70;12.90;;;;;;;16.48;46.65;99624.06;1719516;82;21672;-75
2021/10/21 07:06:33;;;;;;;21.70;12.78;;;;;;;16.31;46.66;99629.20;1717746;82;21054;-77
2021/10/21 07:09:00;;;;;;;22.22;13.35;;;;;;;16.30;47.47;99623.52;1719187;82;21049;-76
2021/10/21 07:11:28;;;;;;;22.70;13.18;;;;;;;16.52;46.93;99625.08;1722469;82;22350;-75
2021/10/21 07:13:54;;;;;;;21.62;11.63;;;;;;;16.78;46.34;99615.73;1728688;81;21117;-76
2021/10/21 07:16:21;;;;;;;22.02;12.70;;;;;;;17.07;45.40;99624.34;1725122;82;21655;-80
2021/10/21 07:18:49;;;;;;;17.20;11.93;;;;;;;17.35;44.05;99624.51;1728017;82;21073;-78
2021/10/21 07:21:18;;;;;;;22.07;13.75;;;;;;;17.35;43.98;99625.84;1724253;82;21025;-80
2021/10/21 07:23:45;;;;;;;26.93;14.40;;;;;;;17.39;44.27;99614.02;1717162;81;21549;-78
2021/10/21 07:26:13;;;;;;;22.37;12.68;;;;;;;17.62;43.19;99614.09;1710938;82;21068;-79
2021/10/21 07:28:40;;;;;;;18.57;12.05;;;;;;;17.55;42.98;99626.17;1670346;85;21096;-79
2021/10/21 07:31:08;;;;;;;20.20;12.65;;;;;;;17.72;42.82;99624.45;1690218;84;21117;-78
2021/10/21 07:33:34;;;;;;;21.02;12.78;;;;;;;17.93;42.27;99617.17;1685290;84;21101;-79
2021/10/21 07:36:01;;;;;;;23.62;13.70;;;;;;;18.06;41.59;99607.29;1665819;86;21556;-79
2021/10/21 07:38:27;;;;;;;17.98;12.58;;;;;;;18.16;41.80;99594.95;1656264;85;21541;-78
2021/10/21 07:40:54;;;;;;;21.37;13.05;;;;;;;17.97;41.80;99593.34;1643253;87;21060;-79
2021/10/21 07:43:20;;;;;;;29.87;13.58;;;;;;;17.94;41.84;99598.88;1643289;85;21078;-78
2021/10/21 07:45:49;;;;;;;18.62;12.55;;;;;;;18.10;41.82;99590.08;1643319;87;21056;-79
2021/10/21 07:48:15;;;;;;;20.25;12.93;;;;;;;18.30;41.36;99587.70;1643643;85;21798;-78
2021/10/21 07:50:42;;;;;;;20.85;12.50;;;;;;;18.54;41.02;99587.59;1721278;82;21133;-78
2021/10/21 07:53:09;;;;;;;17.52;11.63;;;;;;;18.81;40.39;99586.77;1719155;81;21082;-78
2021/10/21 07:55:37;;;;;;;19.52;12.88;;;;;;;19.12;40.33;99584.31;1704372;84;21034;-77
2021/10/21 07:58:05;;;;;;;20.95;12.23;;;;;;;19.44;39.38;99582.13;1715198;82;21105;-79
2021/10/21 08:00:33;;;;;;;20.57;11.63;;;;;;;19.77;38.79;99571.84;1720433;82;21134;-79
2021/10/21 08:03:00;;;;;;;20.60;12.10;;;;;;;19.91;38.35;99565.33;1717985;82;21034;-77
2021/10/21 08:05:28;;;;;;;20.97;13.80;;;;;;;20.00;39.26;99570.39;1714413;82;21978;-79
2021/10/21 08:07:55;;;;;;;21.40;12.05;;;;;;;19.87;37.89;99576.75;1711890;82;21053;-78
2021/10/21 08:10:24;;;;;;;26.70;12.95;;;;;;;19.61;38.57;99572.25;1721283;82;21038;-78
2021/10/21 08:12:50;;;;;;;21.82;13.55;;;;;;;19.71;38.87;99565.67;1715773;82;21129;-80
2021/10/21 08:15:20;;;;;;;19.20;13.13;;;;;;;19.77;38.45;99561.66;1730558;81;21086;-79
2021/10/21 08:17:47;;;;;;;27.50;13.75;;;;;;;19.27;38.74;99555.50;1724588;82;21057;-77
2021/10/21 08:20:14;;;;;;;23.73;14.78;;;;;;;18.89;39.98;99558.16;1730856;82;21002;-79
2021/10/21 08:22:44;;;;;;;23.38;14.00;;;;;;;18.54;40.48;99543.13;1729431;82;21069;-79
2021/10/21 08:25:11;;;;;;;21.05;13.75;;;;;;;18.07;41.41;99539.70;1726315;82;21286;-78
2021/10/21 08:27:40;;;;;;;20.17;13.62;;;;;;;17.73;42.38;99530.75;1720357;82;21077;-78
2021/10/21 08:30:07;;;;;;;24.43;15.60;;;;;;;17.65;42.64;99538.00;1725709;82;21048;-78
2021/10/21 08:32:35;;;;;;;24.87;14.18;;;;;;;17.70;42.97;99531.00;1715675;82;21014;-79
2021/10/21 08:35:01;;;;;;;25.23;15.80;;;;;;;17.71;43.32;99528.20;1728194;82;21519;-78
2021/10/21 08:37:29;;;;;;;22.87;14.95;;;;;;;17.60;43.53;99528.19;1731278;82;21076;-77
2021/10/21 08:39:56;;;;;;;20.48;14.70;;;;;;;17.37;44.49;99530.77;1741710;82;21070;-77
2021/10/21 08:42:23;;;;;;;22.50;13.22;;;;;;;17.20;44.49;99529.83;1742186;82;21073;-78
2021/10/21 08:44:49;;;;;;;21.12;13.55;;;;;;;17.03;45.58;99520.93;1741763;81;21002;-77
2021/10/21 08:47:19;;;;;;;26.87;15.68;;;;;;;17.13;45.21;99529.91;1741714;82;21210;-77
2021/10/21 08:49:47;;;;;;;22.00;14.40;;;;;;;17.21;44.95;99524.89;1741215;82;21134;-79
2021/10/21 08:52:14;;;;;;;21.60;14.33;;;;;;;17.29;45.00;99518.50;1741134;81;21003;-76
2021/10/21 08:54:42;;;;;;;23.30;14.70;;;;;;;17.43;44.54;99508.64;1733342;82;21109;-78
2021/10/21 08:57:14;;;;;;;23.30;14.60;;;;;;;17.46;44.33;99504.41;1712064;82;21089;-76
2021/10/21 08:59:44;;;;;;;22.02;13.85;;;;;;;17.79;44.29;99504.50;1711004;83;21080;-77
2021/10/21 09:10:13;;;;;;;17.57;12.23;;;;;;;19.59;40.69;99490.06;1725411;82;21109;-79
2021/10/21 09:12:45;;;;;;;18.35;12.82;;;;;;;20.33;38.62;99476.55;1716443;82;21077;-76
2021/10/21 09:15:16;;;;;;;18.67;13.43;;;;;;;20.58;38.57;99479.77;1721527;82;21160;-78
2021/10/21 09:17:44;;;;;;;;;;;;;;;20.92;37.79;99474.08;1722964;82;21547;-79
2021/10/21 09:20:38;;;;;;;20.00;12.50;;;;;;;21.08;37.32;99463.66;1730657;82;20217;-77
2021/10/21 09:23:05;;;;;;;18.30;12.33;;;;;;;21.16;36.84;99462.95;1718506;82;21104;-79
2021/10/21 09:25:30;;;;;;;19.92;12.73;;;;;;;20.76;36.55;99455.04;1735638;82;21058;-79
2021/10/21 09:28:02;;;;;;;25.10;15.32;;;;;;;20.39;36.96;99450.28;1731900;82;21324;-78
2021/10/21 09:30:32;;;;;;;21.68;14.03;;;;;;;20.15;37.77;99450.09;1731874;82;21035;-80
2021/10/21 09:33:07;;;;;;;22.80;12.73;;;;;;;19.98;38.11;99438.72;1729189;82;21122;-79
2021/10/21 09:35:37;;;;;;;19.92;13.55;;;;;;;20.07;38.16;99450.78;1725588;82;21124;-79
2021/10/21 09:38:03;;;;;;;18.45;12.37;;;;;;;20.37;38.13;99449.56;1731912;82;21057;-79
2021/10/21 09:40:35;;;;;;;17.37;12.58;;;;;;;20.44;37.63;99430.65;1726697;82;22347;-77
2021/10/21 09:43:07;;;;;;;22.95;13.35;;;;;;;20.85;37.07;99422.09;1735208;82;21054;-77
2021/10/21 09:45:44;;;;;;;18.15;12.78;;;;;;;21.32;36.52;99418.19;1727414;82;21014;-74
2021/10/21 09:48:08;;;;;;;17.52;11.05;;;;;;;21.69;35.46;99418.78;1723487;82;21025;-77
2021/10/21 09:50:46;;;;;;;17.27;10.78;;;;;;;21.84;34.84;99417.34;1717401;82;21056;-76
2021/10/21 09:53:23;;;;;;;14.47;10.82;;;;;;;21.86;34.69;99412.67;1675499;85;21229;-76
2021/10/21 09:56:04;;;;;;;21.65;11.70;;;;;;;21.90;34.24;99408.72;1732719;82;21057;-76
2021/10/21 09:58:37;;;;;;;21.73;11.83;;;;;;;21.86;34.52;99404.64;1739888;82;21073;-77
2021/10/21 10:01:12;;;;;;;20.80;12.20;;;;;;;21.63;34.75;99396.61;1718132;83;21052;-76
2021/10/21 10:03:42;;;;;;;20.88;12.30;;;;;;;21.44;35.36;99390.31;1729859;82;21573;-78
2021/10/21 10:06:16;;;;;;;19.45;10.95;;;;;;;21.24;35.06;99381.94;1720214;82;21159;-76
2021/10/21 10:08:44;;;;;;;14.35;10.43;;;;;;;20.72;35.87;99379.05;1724024;82;21045;-77
2021/10/21 10:11:15;;;;;;;18.15;11.90;;;;;;;20.81;36.15;99375.19;1731559;81;21029;-78
2021/10/21 10:13:44;;;;;;;18.50;12.88;;;;;;;20.72;36.54;99368.84;1726175;82;21566;-79
2021/10/21 10:16:11;;;;;;;19.20;11.45;;;;;;;20.47;36.71;99363.50;1671900;84;21056;-80
2021/10/21 10:18:45;;;;;;;18.67;10.53;;;;;;;20.46;36.71;99360.49;1617972;84;21130;-76
2021/10/21 10:21:22;;;;;;;19.10;11.18;;;;;;;20.70;36.75;99366.80;1688748;84;21060;-79
2021/10/21 10:23:57;;;;;;;23.77;11.85;;;;;;;20.44;36.93;99363.30;1689651;84;21068;-79
2021/10/21 10:26:46;;;;;;;24.30;11.60;;;;;;;20.26;37.17;99360.44;1690962;84;21109;-78
2021/10/21 10:29:40;;;;;;;18.50;10.15;;;;;;;20.16;37.57;99354.23;1689509;84;21096;-78
2021/10/21 10:32:26;;;;;;;20.08;10.80;;;;;;;19.73;38.14;99357.19;1680541;84;21885;-78
2021/10/21 10:34:53;;;;;;;17.92;11.15;;;;;;;19.31;38.85;99343.38;1650356;84;21536;-77
2021/10/21 10:37:25;;;;;;;21.62;11.70;;;;;;;19.33;38.93;99330.75;1671408;84;22159;-80
2021/10/21 10:39:57;;;;;;;19.27;11.38;;;;;;;19.52;38.61;99319.81;1685279;84;21626;-75
2021/10/21 10:42:35;;;;;;;21.45;10.50;;;;;;;19.50;38.64;99316.77;1680215;84;21166;-76
2021/10/21 10:45:12;;;;;;;19.95;10.70;;;;;;;19.57;38.11;99317.58;1667821;85;21219;-72
2021/10/21 10:47:54;;;;;;;18.57;10.93;;;;;;;19.75;37.96;99298.63;1682559;84;21109;-73
2021/10/21 10:50:30;;;;;;;17.23;10.98;;;;;;;19.95;37.86;99300.88;1677411;84;21156;-85
2021/10/21 10:53:03;;;;;;;20.17;11.88;;;;;;;20.16;37.97;99294.09;1685632;84;21029;-74
2021/10/21 10:55:52;;;;;;;27.67;12.05;;;;;;;20.11;38.04;99290.50;1680565;84;21575;-74
2021/10/21 10:58:27;;;;;;;17.15;9.28;;;;;;;20.09;37.96;99291.63;1679901;84;21089;-73
2021/10/21 11:00:58;;;;;;;19.65;11.33;;;;;;;19.90;37.80;99284.42;1688710;83;21085;-78
2021/10/21 11:03:42;;;;;;;23.38;11.95;;;;;;;19.45;39.22;99292.30;1694731;83;21100;-77
2021/10/21 11:06:15;;;;;;;19.27;11.90;;;;;;;18.98;40.01;99274.58;1679212;84;21103;-73
2021/10/21 11:09:06;;;;;;;19.27;11.90;;;;;;;18.72;40.54;99282.58;1687300;84;21065;-75
2021/10/21 11:11:45;;;;;;;20.80;12.50;;;;;;;18.60;41.26;99286.63;1688192;84;21151;-74
2021/10/21 11:14:19;;;;;;;20.52;10.68;;;;;;;18.52;42.12;99277.11;1714035;83;21504;-74
2021/10/21 11:16:54;;;;;;;19.92;11.83;;;;;;;18.45;41.45;99280.77;1672021;83;21132;-75
2021/10/21 11:19:43;;;;;;;20.92;10.93;;;;;;;18.61;40.90;99279.00;1710578;82;21564;-75
2021/10/21 11:22:22;;;;;;;24.80;12.45;;;;;;;18.85;40.99;99280.59;1707023;82;21045;-73
2021/10/21 11:24:56;;;;;;;18.50;11.83;;;;;;;18.87;40.99;99271.98;1698536;82;21158;-73
2021/10/21 11:27:32;;;;;;;21.75;12.65;;;;;;;18.92;40.53;99267.09;1713062;82;21057;-75
2021/10/21 11:30:05;;;;;;;22.02;12.23;;;;;;;19.02;40.59;99270.65;1713855;82;21061;-74
2021/10/21 11:32:34;;;;;;;17.00;10.60;;;;;;;19.05;41.03;99260.23;1713153;82;21069;-74
2021/10/21 11:35:13;;;;;;;19.00;11.22;;;;;;;19.10;40.86;99259.83;1733322;82;21062;-74